Time;durP1;ratioP1;P1;durP2;ratioP2;P2;SDS_P1;SDS_P2;PMS_P1;PMS_P2;Temp;Humidity;BMP_temperature;BMP_pressure;BME280_temperature;BME280_humidity;BME280_pressure;Samples;Min_cycle;Max_cycle;Signal;HPM_P1;HPM_P2
2023/12/10 00:01:44;;;;;;;22.95;3.40;;;8.30;99.90;;;;;;5058092;28;20457;-71
2023/12/10 00:04:12;;;;;;;19.50;3.13;;;8.30;99.90;;;;;;5068061;28;20228;-72
2023/12/10 00:06:40;;;;;;;28.65;3.70;;;8.30;99.90;;;;;;5068125;28;20213;-72
2023/12/10 00:09:08;;;;;;;19.10;2.95;;;8.30;99.90;;;;;;5066142;28;20233;-72
2023/12/10 00:11:36;;;;;;;22.08;2.90;;;8.30;99.90;;;;;;5067293;28;20206;-72
2023/12/10 00:14:05;;;;;;;17.65;3.50;;;8.30;99.90;;;;;;5067767;28;20260;-72
2023/12/10 00:16:33;;;;;;;18.27;2.78;;;8.30;99.90;;;;;;5067746;28;20623;-71
2023/12/10 00:19:01;;;;;;;21.63;4.00;;;8.30;99.90;;;;;;5067128;28;20252;-72
2023/12/10 00:21:29;;;;;;;25.35;4.32;;;8.30;99.90;;;;;;5065464;28;20750;-72
2023/12/10 00:23:57;;;;;;;27.70;3.80;;;8.20;99.90;;;;;;5067042;28;20229;-72
2023/12/10 00:26:25;;;;;;;17.10;3.88;;;8.30;99.90;;;;;;5067335;28;20205;-71
2023/12/10 00:28:53;;;;;;;25.83;3.28;;;8.30;99.90;;;;;;5067473;28;20232;-73
2023/12/10 00:31:23;;;;;;;22.35;4.55;;;8.30;99.90;;;;;;5061246;28;20233;-73
2023/12/10 00:33:50;;;;;;;22.95;3.33;;;8.30;99.90;;;;;;5067799;28;20274;-71
2023/12/10 00:36:19;;;;;;;20.70;4.18;;;8.20;99.90;;;;;;5067445;28;20209;-72
2023/12/10 00:38:47;;;;;;;33.50;3.90;;;8.20;99.90;;;;;;5058394;28;20209;-71
2023/12/10 00:41:15;;;;;;;26.83;4.03;;;8.30;99.90;;;;;;5064363;28;20225;-72
2023/12/10 00:43:43;;;;;;;27.40;4.07;;;8.20;99.90;;;;;;5064026;28;20229;-72
2023/12/10 00:46:11;;;;;;;35.20;4.60;;;8.20;99.90;;;;;;5062516;28;20711;-72
2023/12/10 00:48:40;;;;;;;21.70;4.35;;;8.20;99.90;;;;;;5067338;28;20583;-72
2023/12/10 00:51:09;;;;;;;27.85;4.07;;;8.20;99.90;;;;;;5059737;28;20293;-72
2023/12/10 00:53:37;;;;;;;31.63;3.97;;;8.20;99.90;;;;;;5057781;28;20244;-72
2023/12/10 00:56:05;;;;;;;25.13;4.40;;;8.20;99.90;;;;;;5066936;28;20205;-72
2023/12/10 00:58:33;;;;;;;30.63;5.38;;;8.20;99.90;;;;;;5055199;28;20202;-72
2023/12/10 01:01:01;;;;;;;26.38;4.22;;;8.20;99.90;;;;;;5065785;28;20229;-72
2023/12/10 01:03:29;;;;;;;37.38;5.40;;;8.20;99.90;;;;;;5064394;28;20261;-72
2023/12/10 01:05:58;;;;;;;25.08;5.00;;;8.20;99.90;;;;;;5066892;28;20205;-72
2023/12/10 01:08:26;;;;;;;29.75;4.70;;;8.10;99.90;;;;;;5066708;28;20288;-72
2023/12/10 01:10:54;;;;;;;33.25;4.85;;;8.20;99.90;;;;;;5067150;28;20282;-73
2023/12/10 01:13:24;;;;;;;39.33;5.43;;;8.20;99.90;;;;;;5064970;28;20254;-73
2023/12/10 01:15:52;;;;;;;36.28;5.15;;;8.30;99.90;;;;;;5070345;28;20205;-71
2023/12/10 01:18:21;;;;;;;33.28;5.13;;;8.30;99.90;;;;;;5070525;28;20761;-72
2023/12/10 01:20:49;;;;;;;32.65;5.32;;;8.30;99.90;;;;;;5070052;28;20314;-72
2023/12/10 01:23:18;;;;;;;34.65;5.60;;;8.30;99.90;;;;;;5069662;22;20230;-55
2023/12/10 01:25:46;;;;;;;29.92;4.75;;;8.30;99.90;;;;;;5046166;28;20271;-53
2023/12/10 01:28:14;;;;;;;38.70;5.70;;;8.30;99.90;;;;;;5050350;28;20554;-53
2023/12/10 01:30:42;;;;;;;39.78;5.38;;;8.30;99.90;;;;;;5050167;28;20237;-53
2023/12/10 01:33:11;;;;;;;31.95;4.82;;;8.30;99.90;;;;;;5047966;28;20217;-53
2023/12/10 01:35:39;;;;;;;27.73;4.78;;;8.40;99.90;;;;;;5069785;22;20337;-60
2023/12/10 01:38:07;;;;;;;28.38;5.32;;;8.40;99.90;;;;;;5070099;28;20208;-60
2023/12/10 01:40:36;;;;;;;30.83;5.28;;;8.30;99.90;;;;;;5069807;28;20253;-60
2023/12/10 01:43:07;;;;;;;36.03;5.55;;;8.30;99.90;;;;;;5068480;28;20213;-60
2023/12/10 01:45:35;;;;;;;26.10;4.63;;;8.40;99.90;;;;;;5067220;28;20233;-62
2023/12/10 01:48:05;;;;;;;42.70;5.53;;;8.40;99.90;;;;;;5069733;28;20552;-59
2023/12/10 01:50:33;;;;;;;33.00;5.07;;;8.40;99.90;;;;;;5068487;28;20613;-59
2023/12/10 01:53:01;;;;;;;42.60;5.45;;;8.30;99.90;;;;;;5066327;28;20250;-57
2023/12/10 01:55:29;;;;;;;29.02;4.22;;;8.30;99.90;;;;;;5066672;28;20305;-58
2023/12/10 01:57:59;;;;;;;32.25;4.70;;;8.30;99.90;;;;;;5069571;28;20655;-58
2023/12/10 02:00:27;;;;;;;35.80;5.72;;;8.30;99.90;;;;;;5069070;28;20259;-58
2023/12/10 02:02:55;;;;;;;30.00;4.57;;;8.30;99.90;;;;;;5067670;28;20300;-62
2023/12/10 02:05:23;;;;;;;31.30;4.15;;;8.40;99.90;;;;;;5065843;28;20253;-60
2023/12/10 02:07:51;;;;;;;30.15;4.65;;;8.30;99.90;;;;;;5069439;28;20266;-60
2023/12/10 02:10:19;;;;;;;43.22;5.88;;;8.20;99.90;;;;;;5068936;28;20201;-58
2023/12/10 02:12:47;;;;;;;34.42;5.45;;;8.20;99.90;;;;;;5068926;28;20284;-57
2023/12/10 02:15:17;;;;;;;35.13;5.38;;;8.20;99.90;;;;;;5066160;28;20229;-58
2023/12/10 02:17:45;;;;;;;31.83;5.50;;;8.20;99.90;;;;;;5068451;28;20213;-58
2023/12/10 02:20:13;;;;;;;27.10;4.85;;;8.20;99.90;;;;;;5068921;28;20589;-59
2023/12/10 02:22:44;;;;;;;30.88;4.55;;;8.20;99.90;;;;;;5068836;28;20205;-58
2023/12/10 02:25:11;;;;;;;37.22;4.72;;;8.20;99.90;;;;;;5063715;28;20265;-58
2023/12/10 02:27:41;;;;;;;34.08;5.00;;;8.20;99.90;;;;;;5071154;28;20742;-57
2023/12/10 02:30:10;;;;;;;22.88;3.78;;;8.10;99.90;;;;;;5068701;28;20230;-60
2023/12/10 02:32:38;;;;;;;28.52;4.28;;;8.10;99.90;;;;;;5068643;28;20216;-59
2023/12/10 02:35:07;;;;;;;32.80;5.10;;;8.10;99.90;;;;;;5053025;28;20233;-59
2023/12/10 02:37:35;;;;;;;33.35;5.03;;;8.10;99.90;;;;;;5067596;28;20300;-57
2023/12/10 02:40:03;;;;;;;27.70;4.50;;;8.10;99.90;;;;;;5065572;28;20639;-58
2023/12/10 02:42:31;;;;;;;30.85;4.93;;;8.20;99.90;;;;;;5064621;28;20253;-58
2023/12/10 02:45:01;;;;;;;24.33;4.68;;;8.20;99.90;;;;;;5066311;28;20225;-58
2023/12/10 02:47:29;;;;;;;27.58;4.13;;;8.20;99.90;;;;;;5067063;28;20655;-59
2023/12/10 02:49:57;;;;;;;27.42;4.53;;;8.30;99.90;;;;;;5065803;28;20208;-61
2023/12/10 02:52:24;;;;;;;22.52;4.50;;;8.30;99.90;;;;;;5068714;28;20677;-60
2023/12/10 02:54:53;;;;;;;26.33;4.32;;;8.20;99.90;;;;;;5061776;28;20201;-60
2023/12/10 02:57:21;;;;;;;25.65;4.78;;;8.20;99.90;;;;;;5067121;28;20205;-61
2023/12/10 02:59:48;;;;;;;33.85;4.53;;;8.20;99.90;;;;;;5072385;28;20212;-57
2023/12/10 03:02:18;;;;;;;27.27;4.68;;;8.20;99.90;;;;;;5054889;28;20253;-59
2023/12/10 03:04:47;;;;;;;22.75;4.05;;;8.20;99.90;;;;;;5066061;28;20221;-58
2023/12/10 03:07:15;;;;;;;31.70;4.57;;;8.20;99.90;;;;;;5066761;28;20207;-58
2023/12/10 03:09:44;;;;;;;24.05;3.58;;;8.20;99.90;;;;;;5066724;28;20241;-59
2023/12/10 03:12:12;;;;;;;24.50;3.95;;;8.10;99.90;;;;;;5063397;28;20205;-58
2023/12/10 03:14:40;;;;;;;17.73;3.30;;;8.00;99.90;;;;;;5064336;28;20210;-58
2023/12/10 03:17:08;;;;;;;23.60;4.15;;;8.00;99.90;;;;;;5066553;28;20237;-59
2023/12/10 03:19:38;;;;;;;22.50;3.72;;;7.90;99.90;;;;;;5066474;28;20246;-59
2023/12/10 03:22:06;;;;;;;25.05;3.63;;;7.90;99.90;;;;;;5063874;28;20225;-58
2023/12/10 03:24:34;;;;;;;25.45;3.65;;;7.90;99.90;;;;;;5063482;28;20264;-60
2023/12/10 03:27:02;;;;;;;14.95;3.40;;;7.90;99.90;;;;;;5066029;28;20293;-60
2023/12/10 03:29:30;;;;;;;24.33;4.00;;;7.90;99.90;;;;;;5066035;28;20262;-59
2023/12/10 03:31:57;;;;;;;18.45;3.53;;;7.90;99.90;;;;;;5065029;28;20197;-60
2023/12/10 03:34:26;;;;;;;24.65;3.60;;;7.80;99.90;;;;;;5062753;28;20431;-57
2023/12/10 03:36:56;;;;;;;15.00;3.42;;;7.70;99.90;;;;;;5048419;28;20229;-58
2023/12/10 03:39:24;;;;;;;27.42;3.78;;;7.70;99.90;;;;;;5066067;28;20201;-60
2023/12/10 03:41:51;;;;;;;25.30;3.58;;;7.70;99.90;;;;;;5065057;28;20213;-57
2023/12/10 03:44:19;;;;;;;13.90;3.00;;;7.70;99.90;;;;;;5061394;28;20198;-58
2023/12/10 03:46:47;;;;;;;14.52;2.80;;;7.80;99.90;;;;;;5055731;28;20276;-58
2023/12/10 03:49:15;;;;;;;13.00;2.55;;;7.90;99.90;;;;;;5061022;28;20732;-57
2023/12/10 03:51:43;;;;;;;16.23;3.30;;;7.90;99.90;;;;;;5065428;28;20297;-58
2023/12/10 03:54:12;;;;;;;17.05;2.70;;;8.00;99.90;;;;;;5062226;28;20682;-60
2023/12/10 03:56:40;;;;;;;27.98;3.13;;;8.00;99.90;;;;;;5054353;28;20280;-59
2023/12/10 03:59:08;;;;;;;19.35;3.17;;;7.90;99.90;;;;;;5063179;28;20221;-58
2023/12/10 04:01:36;;;;;;;17.70;2.70;;;7.90;99.90;;;;;;5065151;28;20221;-57
2023/12/10 04:04:04;;;;;;;13.43;2.05;;;7.90;99.90;;;;;;5063397;28;20274;-58
2023/12/10 04:06:32;;;;;;;14.80;2.83;;;7.90;99.90;;;;;;5061424;28;20226;-58
2023/12/10 04:09:00;;;;;;;17.15;3.10;;;7.90;99.90;;;;;;5065217;28;20197;-58
2023/12/10 04:11:29;;;;;;;19.25;2.90;;;7.90;99.90;;;;;;5065180;28;20244;-58
2023/12/10 04:13:57;;;;;;;16.00;2.88;;;7.90;99.90;;;;;;5061797;28;20642;-58
2023/12/10 04:16:26;;;;;;;11.63;2.33;;;8.00;99.90;;;;;;5061468;28;20359;-60
2023/12/10 04:18:53;;;;;;;20.88;2.75;;;8.00;99.90;;;;;;5064783;28;20259;-58
2023/12/10 04:21:22;;;;;;;18.90;2.70;;;8.00;99.90;;;;;;5064850;28;20209;-58
2023/12/10 04:23:49;;;;;;;11.38;2.42;;;7.90;99.90;;;;;;5064916;28;20252;-59
2023/12/10 04:26:17;;;;;;;17.48;2.55;;;7.90;99.90;;;;;;5061282;28;20313;-58
2023/12/10 04:28:47;;;;;;;13.25;2.25;;;7.90;99.90;;;;;;5063393;28;20297;-59
2023/12/10 04:31:14;;;;;;;18.85;2.90;;;7.90;99.90;;;;;;5064998;28;20201;-58
2023/12/10 04:33:44;;;;;;;18.15;2.75;;;7.80;99.90;;;;;;5064634;28;20202;-59
2023/12/10 04:36:13;;;;;;;11.48;2.20;;;7.80;99.90;;;;;;5060652;28;20244;-60
2023/12/10 04:38:41;;;;;;;17.17;2.50;;;7.80;99.90;;;;;;5062258;28;20206;-58
2023/12/10 04:41:09;;;;;;;12.98;2.20;;;7.80;99.90;;;;;;5064761;28;20278;-61
2023/12/10 04:43:37;;;;;;;12.00;2.28;;;7.80;99.90;;;;;;5062780;28;20856;-59
2023/12/10 04:46:06;;;;;;;23.40;3.17;;;7.70;99.90;;;;;;5059912;28;20222;-58
2023/12/10 04:48:34;;;;;;;16.17;2.58;;;7.70;99.90;;;;;;5063032;28;20202;-58
2023/12/10 04:51:02;;;;;;;12.32;2.20;;;7.70;99.90;;;;;;5068742;28;20209;-58
2023/12/10 04:53:30;;;;;;;15.15;2.17;;;7.70;99.90;;;;;;5068578;28;20225;-59
2023/12/10 04:55:59;;;;;;;21.65;2.50;;;7.60;99.90;;;;;;5066719;28;20264;-58
2023/12/10 04:58:27;;;;;;;12.30;2.53;;;7.60;99.90;;;;;;5064953;28;20202;-58
2023/12/10 05:00:54;;;;;;;19.42;3.10;;;7.60;99.90;;;;;;5067365;28;20274;-59
2023/12/10 05:03:24;;;;;;;21.52;3.10;;;7.60;99.90;;;;;;5068348;28;20229;-57
2023/12/10 05:05:52;;;;;;;28.90;3.80;;;7.60;99.90;;;;;;5067139;28;20225;-60
2023/12/10 05:08:20;;;;;;;22.35;3.97;;;7.70;99.90;;;;;;5064959;28;20237;-60
2023/12/10 05:10:47;;;;;;;20.65;3.50;;;7.80;99.90;;;;;;5066100;28;20877;-57
2023/12/10 05:13:15;;;;;;;18.25;3.25;;;7.80;99.90;;;;;;5074259;28;20618;-58
2023/12/10 05:15:43;;;;;;;14.95;2.70;;;7.80;99.90;;;;;;5067403;28;20274;-58
2023/12/10 05:18:11;;;;;;;24.23;3.97;;;7.80;99.90;;;;;;5064661;28;20209;-60
2023/12/10 05:20:41;;;;;;;24.67;3.05;;;7.90;99.90;;;;;;5064882;28;20202;-59
2023/12/10 05:23:09;;;;;;;27.88;3.95;;;7.90;99.90;;;;;;5067590;28;20782;-59
2023/12/10 05:25:37;;;;;;;26.60;3.67;;;8.00;99.90;;;;;;5067303;28;20221;-58
2023/12/10 05:28:05;;;;;;;26.27;3.58;;;8.10;99.90;;;;;;5065268;28;20205;-59
2023/12/10 05:30:33;;;;;;;22.63;2.97;;;8.10;99.90;;;;;;5064145;28;20202;-60
2023/12/10 05:33:02;;;;;;;19.33;2.78;;;8.10;99.90;;;;;;5059656;28;20201;-60
2023/12/10 05:35:32;;;;;;;22.25;3.65;;;8.10;99.90;;;;;;5070651;28;20246;-60
2023/12/10 05:38:01;;;;;;;21.50;3.22;;;8.10;99.90;;;;;;5061228;28;20197;-59
2023/12/10 05:40:29;;;;;;;20.42;4.35;;;8.10;99.90;;;;;;5063550;28;20206;-60
2023/12/10 05:42:57;;;;;;;24.38;3.22;;;8.20;99.90;;;;;;5066275;28;20237;-60
2023/12/10 05:45:24;;;;;;;31.50;4.22;;;8.20;99.90;;;;;;5064933;28;20220;-60
2023/12/10 05:47:52;;;;;;;25.15;3.40;;;8.30;99.90;;;;;;5066322;28;20615;-56
2023/12/10 05:50:21;;;;;;;19.50;3.20;;;8.30;99.90;;;;;;5063418;28;20251;-61
2023/12/10 05:52:49;;;;;;;25.88;3.40;;;8.30;99.90;;;;;;5064928;28;20214;-60
2023/12/10 05:55:18;;;;;;;27.13;4.75;;;8.30;99.90;;;;;;5066458;28;20248;-58
2023/12/10 05:57:46;;;;;;;22.50;4.47;;;8.40;99.90;;;;;;5066683;28;20357;-58
2023/12/10 06:00:14;;;;;;;23.77;3.90;;;8.50;99.90;;;;;;5055708;28;20206;-58
2023/12/10 06:02:42;;;;;;;21.48;3.90;;;8.50;99.90;;;;;;5063739;28;20595;-58
2023/12/10 06:05:10;;;;;;;19.73;3.17;;;8.50;99.90;;;;;;5066871;28;20222;-59
2023/12/10 06:07:39;;;;;;;23.58;3.75;;;8.50;99.90;;;;;;5066219;28;20206;-60
2023/12/10 06:10:08;;;;;;;23.85;3.95;;;8.50;99.90;;;;;;5063990;28;20237;-60
2023/12/10 06:12:37;;;;;;;20.15;3.70;;;8.50;99.90;;;;;;5063032;28;20283;-58
2023/12/10 06:15:06;;;;;;;24.42;3.47;;;8.50;99.90;;;;;;5066402;28;20244;-59
2023/12/10 06:17:34;;;;;;;22.77;3.63;;;8.50;99.90;;;;;;5065760;28;20619;-61
2023/12/10 06:20:04;;;;;;;16.30;2.95;;;8.50;99.90;;;;;;5063796;28;20205;-58
2023/12/10 06:22:33;;;;;;;18.65;3.20;;;8.50;99.90;;;;;;5061885;28;20715;-60
2023/12/10 06:25:01;;;;;;;29.90;3.67;;;8.50;99.90;;;;;;5057302;28;20366;-58
2023/12/10 06:27:29;;;;;;;24.88;3.63;;;8.50;99.90;;;;;;5056219;28;20296;-62
2023/12/10 06:29:58;;;;;;;19.27;3.15;;;8.60;99.90;;;;;;5070165;28;20717;-58
2023/12/10 06:32:26;;;;;;;24.83;3.30;;;8.60;99.90;;;;;;5061766;28;20659;-59
2023/12/10 06:34:54;;;;;;;30.98;3.58;;;8.60;99.90;;;;;;5054697;28;20213;-59
2023/12/10 06:37:23;;;;;;;28.40;3.83;;;8.60;99.90;;;;;;5063836;28;20250;-59
2023/12/10 06:39:51;;;;;;;28.55;4.63;;;8.60;99.90;;;;;;5064629;28;20201;-58
2023/12/10 06:42:19;;;;;;;21.02;4.00;;;8.60;99.90;;;;;;5061657;28;20209;-59
2023/12/10 06:44:49;;;;;;;25.60;4.63;;;8.60;99.90;;;;;;5060872;28;20202;-58
2023/12/10 06:47:19;;;;;;;21.77;3.17;;;8.60;99.90;;;;;;5064626;28;20201;-59
2023/12/10 06:49:47;;;;;;;19.25;3.63;;;8.60;99.90;;;;;;5053205;28;20230;-58
2023/12/10 06:52:15;;;;;;;27.52;3.80;;;8.60;99.90;;;;;;5055577;28;20209;-60
2023/12/10 06:54:43;;;;;;;16.13;3.03;;;8.60;99.90;;;;;;5051665;28;20272;-58
2023/12/10 06:57:11;;;;;;;27.15;4.10;;;8.60;99.90;;;;;;5052495;28;20584;-58
2023/12/10 06:59:39;;;;;;;23.52;3.17;;;8.60;99.90;;;;;;5053116;28;20238;-60
2023/12/10 07:02:07;;;;;;;23.67;3.63;;;8.60;99.90;;;;;;5055096;28;20251;-61
2023/12/10 07:04:36;;;;;;;17.25;3.47;;;8.70;99.90;;;;;;5061646;28;20272;-60
2023/12/10 07:07:04;;;;;;;28.80;3.33;;;8.70;99.90;;;;;;5064501;28;20237;-60
2023/12/10 07:09:32;;;;;;;24.30;3.60;;;8.70;99.90;;;;;;5065089;28;20201;-60
2023/12/10 07:12:00;;;;;;;18.40;3.50;;;8.70;99.90;;;;;;5059650;28;20260;-60
2023/12/10 07:14:28;;;;;;;20.73;3.65;;;8.70;99.90;;;;;;5060392;28;20259;-60
2023/12/10 07:16:56;;;;;;;26.33;4.43;;;8.70;99.90;;;;;;5069455;28;20229;-61
2023/12/10 07:19:23;;;;;;;26.52;3.90;;;8.70;99.90;;;;;;5064702;28;20209;-61
2023/12/10 07:21:55;;;;;;;26.50;3.53;;;8.70;99.90;;;;;;5064158;28;20209;-60
2023/12/10 07:24:23;;;;;;;23.77;3.83;;;8.70;99.90;;;;;;5059100;28;20600;-60
2023/12/10 07:26:51;;;;;;;16.75;3.63;;;8.70;99.90;;;;;;5055044;28;20257;-60
2023/12/10 07:29:19;;;;;;;20.70;3.22;;;8.70;99.90;;;;;;5056719;28;20234;-61
2023/12/10 07:31:47;;;;;;;27.23;4.30;;;8.70;99.90;;;;;;5051168;28;20248;-60
2023/12/10 07:34:14;;;;;;;20.42;3.33;;;8.80;99.90;;;;;;5053123;28;20210;-60
2023/12/10 07:36:42;;;;;;;26.63;4.22;;;8.80;99.90;;;;;;5060658;28;20225;-62
2023/12/10 07:39:13;;;;;;;24.33;3.20;;;8.70;99.90;;;;;;5064130;28;20254;-63
2023/12/10 07:41:40;;;;;;;23.33;2.80;;;8.80;99.90;;;;;;5064228;28;20274;-63
2023/12/10 07:44:08;;;;;;;22.27;3.65;;;8.80;99.90;;;;;;5056697;28;20266;-63
2023/12/10 07:46:36;;;;;;;21.67;3.38;;;8.80;99.90;;;;;;5060229;28;20225;-63
2023/12/10 07:49:04;;;;;;;22.35;3.10;;;8.90;99.90;;;;;;5063030;28;20233;-63
2023/12/10 07:51:32;;;;;;;15.73;2.67;;;8.90;99.90;;;;;;5063601;28;20197;-63
2023/12/10 07:54:00;;;;;;;23.10;3.38;;;8.90;99.90;;;;;;5061809;28;20563;-63
2023/12/10 07:56:30;;;;;;;20.67;3.38;;;8.90;99.90;;;;;;5059406;28;20244;-63
2023/12/10 07:58:58;;;;;;;19.35;3.30;;;9.00;99.90;;;;;;5062254;28;20206;-63
2023/12/10 08:01:26;;;;;;;18.95;2.85;;;9.00;99.90;;;;;;5063138;28;20244;-62
2023/12/10 08:03:54;;;;;;;23.33;3.75;;;9.10;99.90;;;;;;5062592;28;20635;-62
2023/12/10 08:06:22;;;;;;;20.23;3.03;;;9.10;99.90;;;;;;5059715;28;20581;-63
2023/12/10 08:08:50;;;;;;;19.40;2.97;;;9.10;99.90;;;;;;5061069;28;20214;-62
2023/12/10 08:11:17;;;;;;;18.00;2.92;;;9.10;99.90;;;;;;5063338;28;20229;-63
2023/12/10 08:13:47;;;;;;;21.27;2.80;;;9.10;99.90;;;;;;5063231;28;20207;-63
2023/12/10 08:16:15;;;;;;;23.05;3.45;;;9.10;99.90;;;;;;5059787;28;20225;-62
2023/12/10 08:18:43;;;;;;;20.05;3.42;;;9.10;99.90;;;;;;5059930;28;20230;-63
2023/12/10 08:21:13;;;;;;;19.08;3.70;;;9.10;99.90;;;;;;5047064;28;20209;-62
2023/12/10 08:23:41;;;;;;;17.10;2.85;;;9.20;99.90;;;;;;5067575;28;20717;-63
2023/12/10 08:26:08;;;;;;;22.63;3.80;;;9.10;99.90;;;;;;5066823;28;20255;-62
2023/12/10 08:28:37;;;;;;;15.35;3.45;;;9.10;99.90;;;;;;5059056;28;20210;-63
2023/12/10 08:31:06;;;;;;;14.27;2.78;;;9.10;99.90;;;;;;5055748;28;20260;-63
2023/12/10 08:33:34;;;;;;;25.33;3.33;;;9.10;99.90;;;;;;5061951;28;20203;-63
2023/12/10 08:36:03;;;;;;;25.38;3.25;;;9.10;99.90;;;;;;5057880;28;20229;-62
2023/12/10 08:38:31;;;;;;;18.27;3.10;;;9.10;99.90;;;;;;5061817;28;20209;-63
2023/12/10 08:40:59;;;;;;;16.60;3.03;;;9.20;99.90;;;;;;5066775;28;20731;-63
2023/12/10 08:43:27;;;;;;;19.23;3.22;;;9.20;99.90;;;;;;5067642;28;20262;-63
2023/12/10 08:45:55;;;;;;;16.83;2.83;;;9.20;99.90;;;;;;5064940;28;20249;-63
2023/12/10 08:48:25;;;;;;;22.10;3.38;;;9.20;99.90;;;;;;5065472;28;20259;-63
2023/12/10 08:50:53;;;;;;;19.10;3.22;;;9.30;99.90;;;;;;5066624;28;20260;-63
2023/12/10 08:53:21;;;;;;;20.80;3.35;;;9.30;99.90;;;;;;5068332;28;20205;-63
2023/12/10 08:55:49;;;;;;;14.80;3.00;;;9.30;99.90;;;;;;5068392;28;20308;-63
2023/12/10 08:58:17;;;;;;;16.30;2.58;;;9.30;99.90;;;;;;5052394;28;20252;-63
2023/12/10 09:00:45;;;;;;;21.70;2.90;;;9.30;99.90;;;;;;5065473;28;20284;-63
2023/12/10 09:03:13;;;;;;;20.83;3.10;;;9.40;99.90;;;;;;5060981;28;20762;-63
2023/12/10 09:05:42;;;;;;;17.33;2.50;;;9.40;99.90;;;;;;5068631;28;20229;-63
2023/12/10 09:08:10;;;;;;;11.48;2.88;;;9.40;99.90;;;;;;5065883;28;20202;-63
2023/12/10 09:10:38;;;;;;;23.30;3.30;;;9.40;99.90;;;;;;5061236;28;20209;-63
2023/12/10 09:13:06;;;;;;;21.88;3.67;;;9.50;99.90;;;;;;5067792;28;20209;-62
2023/12/10 09:15:33;;;;;;;24.77;3.30;;;9.50;99.90;;;;;;5063851;28;20713;-63
2023/12/10 09:18:02;;;;;;;23.88;3.75;;;9.50;99.90;;;;;;5058978;28;20210;-62
2023/12/10 09:20:30;;;;;;;21.77;3.55;;;9.60;99.90;;;;;;5065534;28;20198;-63
2023/12/10 09:22:59;;;;;;;23.35;3.50;;;9.60;99.90;;;;;;5061819;28;20288;-63
2023/12/10 09:25:27;;;;;;;12.52;2.78;;;9.70;99.90;;;;;;5063607;28;20257;-62
2023/12/10 09:27:55;;;;;;;15.40;3.15;;;9.70;99.90;;;;;;5062428;28;20248;-62
2023/12/10 09:30:23;;;;;;;17.02;3.30;;;9.70;99.90;;;;;;5060261;28;20198;-62
2023/12/10 09:32:50;;;;;;;19.55;3.08;;;9.80;99.90;;;;;;5056500;28;20283;-62
2023/12/10 09:35:18;;;;;;;14.30;2.88;;;9.80;99.90;;;;;;5074482;28;20233;-63
2023/12/10 09:37:46;;;;;;;16.75;3.53;;;9.80;99.90;;;;;;5067662;28;20217;-62
2023/12/10 09:40:15;;;;;;;16.38;2.92;;;9.90;99.90;;;;;;5055642;28;20205;-62
2023/12/10 09:42:48;;;;;;;22.30;2.75;;;9.90;99.90;;;;;;5069827;28;20275;-62
2023/12/10 09:45:16;;;;;;;16.63;3.25;;;9.90;99.90;;;;;;5061261;28;20710;-63
2023/12/10 09:47:45;;;;;;;21.58;3.35;;;9.90;99.90;;;;;;5073146;28;20202;-63
2023/12/10 09:50:13;;;;;;;18.30;2.30;;;10.00;99.90;;;;;;5072028;28;20640;-63
2023/12/10 09:52:41;;;;;;;16.58;3.58;;;10.00;99.90;;;;;;5068204;28;20201;-63
2023/12/10 09:55:09;;;;;;;23.08;2.70;;;10.10;99.90;;;;;;5068398;28;20222;-62
2023/12/10 09:57:39;;;;;;;16.63;3.42;;;10.30;99.90;;;;;;5058101;28;20284;-63
2023/12/10 10:00:08;;;;;;;16.40;3.08;;;10.40;99.90;;;;;;5066102;28;20710;-63
2023/12/10 10:02:36;;;;;;;22.23;3.08;;;10.50;99.90;;;;;;5067033;28;20197;-63
2023/12/10 10:05:04;;;;;;;18.95;3.05;;;10.50;99.90;;;;;;5064967;28;20662;-62
2023/12/10 10:07:33;;;;;;;17.90;3.05;;;10.50;99.90;;;;;;5058998;28;20298;-63
2023/12/10 10:10:01;;;;;;;19.42;3.22;;;10.50;99.90;;;;;;5072113;28;20408;-62
2023/12/10 10:12:29;;;;;;;19.25;3.38;;;10.50;99.90;;;;;;5072504;28;20732;-61
2023/12/10 10:15:00;;;;;;;17.35;2.75;;;10.50;99.90;;;;;;5060652;28;20222;-63
2023/12/10 10:17:29;;;;;;;22.20;3.35;;;10.50;99.90;;;;;;5061070;28;20208;-62
2023/12/10 10:19:57;;;;;;;17.52;2.85;;;10.50;99.90;;;;;;5059254;28;20221;-62
2023/12/10 10:22:26;;;;;;;20.23;3.20;;;10.70;99.90;;;;;;5072153;28;20591;-63
2023/12/10 10:24:54;;;;;;;14.90;3.00;;;10.70;99.90;;;;;;5072202;28;20221;-62
2023/12/10 10:27:21;;;;;;;20.98;3.15;;;10.90;99.90;;;;;;5066296;28;20224;-63
2023/12/10 10:29:53;;;;;;;13.95;3.15;;;11.00;99.90;;;;;;5069672;28;20296;-63
2023/12/10 10:32:23;;;;;;;18.90;2.72;;;11.10;99.90;;;;;;5055698;28;20208;-62
2023/12/10 10:34:51;;;;;;;22.00;3.33;;;11.20;99.90;;;;;;5059687;28;20213;-62
2023/12/10 10:37:19;;;;;;;20.73;3.20;;;11.20;99.90;;;;;;5064588;28;20254;-63
2023/12/10 10:39:49;;;;;;;19.92;3.50;;;11.30;99.90;;;;;;5072106;28;20295;-62
2023/12/10 10:42:18;;;;;;;15.15;3.22;;;11.30;99.90;;;;;;5055893;28;20207;-62
2023/12/10 10:44:47;;;;;;;13.43;2.95;;;11.30;99.90;;;;;;5067749;28;20377;-62
2023/12/10 10:47:15;;;;;;;16.40;2.47;;;11.40;99.90;;;;;;5071120;28;20198;-61
2023/12/10 10:49:46;;;;;;;15.63;2.92;;;11.50;99.90;;;;;;5072024;28;20201;-63
2023/12/10 10:52:34;;;;;;;16.13;2.75;;;11.60;99.90;;;;;;5059444;28;20205;-63
2023/12/10 10:55:02;;;;;;;13.25;2.20;;;11.60;99.90;;;;;;5071373;28;20221;-63
2023/12/10 10:57:30;;;;;;;11.68;2.22;;;11.60;99.90;;;;;;5071640;28;20205;-62
2023/12/10 10:59:58;;;;;;;13.32;2.70;;;11.60;99.90;;;;;;5070966;28;20206;-63
2023/12/10 11:02:30;;;;;;;14.65;2.70;;;11.60;99.90;;;;;;5071292;28;20205;-63
2023/12/10 11:04:59;;;;;;;16.20;3.05;;;11.60;99.90;;;;;;5071252;28;20679;-62
2023/12/10 11:07:27;;;;;;;18.30;3.15;;;11.50;99.90;;;;;;5071268;28;20205;-62
2023/12/10 11:09:57;;;;;;;17.65;2.95;;;11.40;99.90;;;;;;5070332;28;20216;-62
2023/12/10 11:12:46;;;;;;;18.83;2.50;;;11.40;99.90;;;;;;5071140;28;20212;-62
2023/12/10 11:15:23;;;;;;;16.83;2.40;;;11.40;99.90;;;;;;5071098;28;20224;-62
2023/12/10 11:17:52;;;;;;;13.05;2.35;;;11.30;99.90;;;;;;5070471;28;20208;-62
2023/12/10 11:20:32;;;;;;;12.23;2.75;;;11.30;99.90;;;;;;5054692;28;20586;-63
2023/12/10 11:23:01;;;;;;;13.10;3.08;;;11.30;99.90;;;;;;5070617;28;20227;-63
2023/12/10 11:25:29;;;;;;;27.02;3.50;;;11.30;99.90;;;;;;5070815;28;20228;-63
2023/12/10 11:27:57;;;;;;;13.77;2.88;;;11.20;99.90;;;;;;5063056;28;20248;-62
2023/12/10 11:30:25;;;;;;;18.50;3.40;;;11.20;99.90;;;;;;5065893;28;20197;-62
2023/12/10 11:32:53;;;;;;;15.60;2.70;;;11.20;99.90;;;;;;5070638;28;20209;-63
2023/12/10 11:35:21;;;;;;;17.05;2.90;;;11.20;99.90;;;;;;5056188;28;20224;-62
2023/12/10 11:37:50;;;;;;;15.40;3.17;;;11.20;99.90;;;;;;5070101;28;20201;-62
2023/12/10 11:40:18;;;;;;;16.30;3.03;;;11.20;99.90;;;;;;5070330;28;20201;-62
2023/12/10 11:42:46;;;;;;;9.88;2.53;;;11.20;99.90;;;;;;5069882;28;20638;-62
2023/12/10 11:45:15;;;;;;;11.88;2.33;;;11.20;99.90;;;;;;5065437;28;20229;-62
2023/12/10 11:47:43;;;;;;;14.95;2.90;;;11.20;99.90;;;;;;5069864;28;20655;-62
2023/12/10 11:50:11;;;;;;;16.70;2.85;;;11.10;99.90;;;;;;5068938;28;20209;-62
2023/12/10 11:52:40;;;;;;;16.20;2.67;;;11.00;99.90;;;;;;5069751;28;20708;-62
2023/12/10 11:55:09;;;;;;;19.10;2.80;;;11.00;99.90;;;;;;5070177;28;20260;-61
2023/12/10 11:57:42;;;;;;;14.05;2.78;;;10.90;99.90;;;;;;5068715;28;20202;-62
2023/12/10 12:00:11;;;;;;;13.98;2.88;;;10.90;99.90;;;;;;5069198;28;20292;-62
2023/12/10 12:02:43;;;;;;;15.00;3.17;;;10.90;99.90;;;;;;5069779;28;20232;-62
2023/12/10 12:05:11;;;;;;;16.33;2.33;;;10.80;99.90;;;;;;5069792;28;20232;-62
2023/12/10 12:07:42;;;;;;;21.63;2.95;;;10.80;99.90;;;;;;5069661;28;20307;-62
2023/12/10 12:10:12;;;;;;;10.70;1.88;;;10.80;99.90;;;;;;5067921;28;20210;-62
2023/12/10 12:12:42;;;;;;;16.55;2.70;;;10.80;99.90;;;;;;5057191;28;20259;-62
2023/12/10 12:15:10;;;;;;;17.40;3.63;;;10.80;99.90;;;;;;5069807;28;20688;-62
2023/12/10 12:17:38;;;;;;;16.27;2.83;;;10.80;99.90;;;;;;5063696;28;20274;-62
2023/12/10 12:20:16;;;;;;;18.25;2.78;;;10.80;99.90;;;;;;5068507;28;20570;-63
2023/12/10 12:22:44;;;;;;;15.93;2.70;;;10.90;99.90;;;;;;5069302;28;20349;-63
2023/12/10 12:25:17;;;;;;;17.17;3.05;;;10.90;99.90;;;;;;5069451;28;20229;-62
2023/12/10 12:27:45;;;;;;;16.13;3.15;;;10.90;99.90;;;;;;5069487;28;20224;-62
2023/12/10 12:30:13;;;;;;;13.85;2.70;;;11.00;99.90;;;;;;5068206;28;20675;-62
2023/12/10 12:32:41;;;;;;;23.42;3.05;;;11.00;99.90;;;;;;5069284;28;20201;-62
2023/12/10 12:35:09;;;;;;;18.23;3.22;;;11.00;99.90;;;;;;5057422;28;20795;-62
2023/12/10 12:37:37;;;;;;;16.33;3.13;;;11.00;99.90;;;;;;5061148;28;20236;-62
2023/12/10 12:40:07;;;;;;;14.20;2.90;;;11.00;99.90;;;;;;5062077;28;20258;-62
2023/12/10 12:42:36;;;;;;;17.15;2.75;;;10.90;99.90;;;;;;5060596;28;20686;-63
2023/12/10 12:45:05;;;;;;;17.63;3.28;;;10.90;99.90;;;;;;5055412;28;20226;-62
2023/12/10 12:47:33;;;;;;;14.88;2.45;;;10.90;99.90;;;;;;5062719;28;20217;-62
2023/12/10 12:50:01;;;;;;;16.23;3.50;;;10.90;99.90;;;;;;5057781;28;20717;-62
2023/12/10 12:52:29;;;;;;;16.90;3.03;;;10.90;99.90;;;;;;5060212;28;20202;-62